sensor_id;sensor_type;location;lat;lon;timestamp;temperature;humidity
5560;DHT22;2803;47.916;8.074;2023-06-10T00:01:42;20.10;99.90
5560;DHT22;2803;47.916;8.074;2023-06-10T00:04:13;20.10;99.90
5560;DHT22;2803;47.916;8.074;2023-06-10T00:06:41;20.10;99.90
5560;DHT22;2803;47.916;8.074;2023-06-10T00:09:09;20.10;99.90
5560;DHT22;2803;47.916;8.074;2023-06-10T00:11:36;20.10;99.90
5560;DHT22;2803;47.916;8.074;2023-06-10T00:14:04;20.00;99.90
5560;DHT22;2803;47.916;8.074;2023-06-10T00:16:31;19.90;99.90
5560;DHT22;2803;47.916;8.074;2023-06-10T00:18:59;19.90;99.90
5560;DHT22;2803;47.916;8.074;2023-06-10T00:21:28;19.90;99.90
5560;DHT22;2803;47.916;8.074;2023-06-10T00:23:55;19.80;99.90
5560;DHT22;2803;47.916;8.074;2023-06-10T00:26:22;19.80;99.90
5560;DHT22;2803;47.916;8.074;2023-06-10T00:28:49;19.80;99.90
5560;DHT22;2803;47.916;8.074;2023-06-10T00:31:16;19.70;99.90
5560;DHT22;2803;47.916;8.074;2023-06-10T00:33:43;19.60;99.90
5560;DHT22;2803;47.916;8.074;2023-06-10T00:36:09;19.70;99.90
5560;DHT22;2803;47.916;8.074;2023-06-10T00:38:37;19.70;99.90
5560;DHT22;2803;47.916;8.074;2023-06-10T00:41:05;19.60;99.90
5560;DHT22;2803;47.916;8.074;2023-06-10T00:43:32;19.50;99.90
5560;DHT22;2803;47.916;8.074;2023-06-10T00:45:59;19.50;99.90
5560;DHT22;2803;47.916;8.074;2023-06-10T00:48:27;19.40;99.90
5560;DHT22;2803;47.916;8.074;2023-06-10T00:50:54;19.50;99.90
5560;DHT22;2803;47.916;8.074;2023-06-10T00:53:21;19.40;99.90
5560;DHT22;2803;47.916;8.074;2023-06-10T00:55:49;19.40;99.90
5560;DHT22;2803;47.916;8.074;2023-06-10T00:58:16;19.30;99.90
5560;DHT22;2803;47.916;8.074;2023-06-10T01:00:42;19.30;99.90
5560;DHT22;2803;47.916;8.074;2023-06-10T01:03:10;19.30;99.90
5560;DHT22;2803;47.916;8.074;2023-06-10T01:05:37;19.20;99.90
5560;DHT22;2803;47.916;8.074;2023-06-10T01:08:09;19.10;99.90
5560;DHT22;2803;47.916;8.074;2023-06-10T01:10:43;19.00;99.90
5560;DHT22;2803;47.916;8.074;2023-06-10T01:13:13;18.90;99.90
5560;DHT22;2803;47.916;8.074;2023-06-10T01:15:40;18.90;99.90
5560;DHT22;2803;47.916;8.074;2023-06-10T01:18:08;19.00;99.90
5560;DHT22;2803;47.916;8.074;2023-06-10T01:20:40;19.10;99.90
5560;DHT22;2803;47.916;8.074;2023-06-10T01:23:10;18.80;99.90
5560;DHT22;2803;47.916;8.074;2023-06-10T01:25:38;18.90;99.90
5560;DHT22;2803;47.916;8.074;2023-06-10T01:28:14;18.90;99.90
5560;DHT22;2803;47.916;8.074;2023-06-10T01:30:48;18.80;99.90
5560;DHT22;2803;47.916;8.074;2023-06-10T01:33:25;18.80;99.90
5560;DHT22;2803;47.916;8.074;2023-06-10T01:35:53;18.80;99.90
5560;DHT22;2803;47.916;8.074;2023-06-10T01:38:23;18.30;99.90
5560;DHT22;2803;47.916;8.074;2023-06-10T01:40:52;18.40;99.90
5560;DHT22;2803;47.916;8.074;2023-06-10T01:43:20;18.50;99.90
5560;DHT22;2803;47.916;8.074;2023-06-10T01:45:47;18.50;99.90
5560;DHT22;2803;47.916;8.074;2023-06-10T01:48:13;18.60;99.90
5560;DHT22;2803;47.916;8.074;2023-06-10T01:50:40;18.70;99.90
5560;DHT22;2803;47.916;8.074;2023-06-10T01:53:06;18.50;99.90
5560;DHT22;2803;47.916;8.074;2023-06-10T01:55:34;18.40;99.90
5560;DHT22;2803;47.916;8.074;2023-06-10T01:58:01;18.40;99.90
5560;DHT22;2803;47.916;8.074;2023-06-10T02:00:28;18.30;99.90
5560;DHT22;2803;47.916;8.074;2023-06-10T02:02:54;18.40;99.90
5560;DHT22;2803;47.916;8.074;2023-06-10T02:05:21;18.40;99.90
5560;DHT22;2803;47.916;8.074;2023-06-10T02:07:48;18.40;99.90
5560;DHT22;2803;47.916;8.074;2023-06-10T02:10:14;18.30;99.90
5560;DHT22;2803;47.916;8.074;2023-06-10T02:12:42;18.20;99.90
5560;DHT22;2803;47.916;8.074;2023-06-10T02:15:09;18.30;99.90
5560;DHT22;2803;47.916;8.074;2023-06-10T02:17:35;18.20;99.90
5560;DHT22;2803;47.916;8.074;2023-06-10T02:20:03;18.20;99.90
5560;DHT22;2803;47.916;8.074;2023-06-10T02:22:32;18.20;99.90
5560;DHT22;2803;47.916;8.074;2023-06-10T02:24:59;18.20;99.90
5560;DHT22;2803;47.916;8.074;2023-06-10T02:27:26;18.10;99.90
5560;DHT22;2803;47.916;8.074;2023-06-10T02:29:54;18.00;99.90
5560;DHT22;2803;47.916;8.074;2023-06-10T02:32:20;18.00;99.90
5560;DHT22;2803;47.916;8.074;2023-06-10T02:34:47;17.90;99.90
5560;DHT22;2803;47.916;8.074;2023-06-10T02:37:14;17.80;99.90
5560;DHT22;2803;47.916;8.074;2023-06-10T02:39:41;17.80;99.90
5560;DHT22;2803;47.916;8.074;2023-06-10T02:42:08;17.80;99.90
5560;DHT22;2803;47.916;8.074;2023-06-10T02:44:35;17.80;99.90
5560;DHT22;2803;47.916;8.074;2023-06-10T02:47:03;17.70;99.90
5560;DHT22;2803;47.916;8.074;2023-06-10T02:49:30;17.70;99.90
5560;DHT22;2803;47.916;8.074;2023-06-10T02:51:57;17.80;99.90
5560;DHT22;2803;47.916;8.074;2023-06-10T02:54:24;17.80;99.90
5560;DHT22;2803;47.916;8.074;2023-06-10T02:56:51;17.80;99.90
5560;DHT22;2803;47.916;8.074;2023-06-10T02:59:18;17.80;99.90
5560;DHT22;2803;47.916;8.074;2023-06-10T03:01:46;17.80;99.90
5560;DHT22;2803;47.916;8.074;2023-06-10T03:04:14;17.80;99.90
5560;DHT22;2803;47.916;8.074;2023-06-10T03:06:40;17.80;99.90
5560;DHT22;2803;47.916;8.074;2023-06-10T03:09:07;17.70;99.90
5560;DHT22;2803;47.916;8.074;2023-06-10T03:11:34;17.70;99.90
5560;DHT22;2803;47.916;8.074;2023-06-10T03:14:01;17.70;99.90
5560;DHT22;2803;47.916;8.074;2023-06-10T03:16:27;17.80;99.90
5560;DHT22;2803;47.916;8.074;2023-06-10T03:18:55;17.60;99.90
5560;DHT22;2803;47.916;8.074;2023-06-10T03:21:23;17.50;99.90
5560;DHT22;2803;47.916;8.074;2023-06-10T03:23:50;17.50;99.90
5560;DHT22;2803;47.916;8.074;2023-06-10T03:26:16;17.60;99.90
5560;DHT22;2803;47.916;8.074;2023-06-10T03:28:47;17.60;99.90
5560;DHT22;2803;47.916;8.074;2023-06-10T03:31:13;17.50;99.90
5560;DHT22;2803;47.916;8.074;2023-06-10T03:33:42;17.60;99.90
5560;DHT22;2803;47.916;8.074;2023-06-10T03:36:09;17.60;99.90
5560;DHT22;2803;47.916;8.074;2023-06-10T03:38:37;17.40;99.90
5560;DHT22;2803;47.916;8.074;2023-06-10T03:41:03;17.40;99.90
5560;DHT22;2803;47.916;8.074;2023-06-10T03:43:30;17.40;99.90
5560;DHT22;2803;47.916;8.074;2023-06-10T03:45:57;17.40;99.90
5560;DHT22;2803;47.916;8.074;2023-06-10T03:48:24;17.40;99.90
5560;DHT22;2803;47.916;8.074;2023-06-10T03:50:50;17.40;99.90
5560;DHT22;2803;47.916;8.074;2023-06-10T03:53:17;17.30;99.90
5560;DHT22;2803;47.916;8.074;2023-06-10T03:55:45;17.10;99.90
5560;DHT22;2803;47.916;8.074;2023-06-10T03:58:12;17.00;99.90
5560;DHT22;2803;47.916;8.074;2023-06-10T04:00:40;17.10;99.90
5560;DHT22;2803;47.916;8.074;2023-06-10T04:03:07;17.20;99.90
5560;DHT22;2803;47.916;8.074;2023-06-10T04:05:39;17.30;99.90
5560;DHT22;2803;47.916;8.074;2023-06-10T04:08:06;17.10;99.90
5560;DHT22;2803;47.916;8.074;2023-06-10T04:10:33;17.30;99.90
5560;DHT22;2803;47.916;8.074;2023-06-10T04:13:01;17.20;99.90
5560;DHT22;2803;47.916;8.074;2023-06-10T04:15:28;17.30;99.90
5560;DHT22;2803;47.916;8.074;2023-06-10T04:17:58;17.20;99.90
5560;DHT22;2803;47.916;8.074;2023-06-10T04:20:25;17.30;99.90
5560;DHT22;2803;47.916;8.074;2023-06-10T04:22:51;17.40;99.90
5560;DHT22;2803;47.916;8.074;2023-06-10T04:25:18;17.40;99.90
5560;DHT22;2803;47.916;8.074;2023-06-10T04:27:45;17.30;99.90
5560;DHT22;2803;47.916;8.074;2023-06-10T04:30:14;17.30;99.90
5560;DHT22;2803;47.916;8.074;2023-06-10T04:32:40;17.20;99.90
5560;DHT22;2803;47.916;8.074;2023-06-10T04:35:08;17.20;99.90
5560;DHT22;2803;47.916;8.074;2023-06-10T04:37:34;17.30;99.90
5560;DHT22;2803;47.916;8.074;2023-06-10T04:40:01;17.20;99.90
5560;DHT22;2803;47.916;8.074;2023-06-10T04:42:28;17.40;99.90
5560;DHT22;2803;47.916;8.074;2023-06-10T04:44:55;17.50;99.90
5560;DHT22;2803;47.916;8.074;2023-06-10T04:47:24;17.50;99.90
5560;DHT22;2803;47.916;8.074;2023-06-10T04:49:50;17.50;99.90
5560;DHT22;2803;47.916;8.074;2023-06-10T04:52:17;17.50;99.90
5560;DHT22;2803;47.916;8.074;2023-06-10T04:54:45;17.60;99.90
5560;DHT22;2803;47.916;8.074;2023-06-10T04:57:11;17.60;99.90
5560;DHT22;2803;47.916;8.074;2023-06-10T04:59:38;17.50;99.90
5560;DHT22;2803;47.916;8.074;2023-06-10T05:02:05;17.60;99.90
5560;DHT22;2803;47.916;8.074;2023-06-10T05:04:33;17.70;99.90
5560;DHT22;2803;47.916;8.074;2023-06-10T05:06:59;17.70;99.90
5560;DHT22;2803;47.916;8.074;2023-06-10T05:09:26;17.60;99.90
5560;DHT22;2803;47.916;8.074;2023-06-10T05:11:53;17.50;99.90
5560;DHT22;2803;47.916;8.074;2023-06-10T05:14:20;17.50;99.90
5560;DHT22;2803;47.916;8.074;2023-06-10T05:16:47;17.60;99.90
5560;DHT22;2803;47.916;8.074;2023-06-10T05:19:14;17.70;99.90
5560;DHT22;2803;47.916;8.074;2023-06-10T05:21:43;17.70;99.90
5560;DHT22;2803;47.916;8.074;2023-06-10T05:24:10;17.80;99.90
5560;DHT22;2803;47.916;8.074;2023-06-10T05:26:38;17.80;99.90
5560;DHT22;2803;47.916;8.074;2023-06-10T05:29:05;17.90;99.90
5560;DHT22;2803;47.916;8.074;2023-06-10T05:31:31;18.00;99.90
5560;DHT22;2803;47.916;8.074;2023-06-10T05:33:58;18.10;99.90
5560;DHT22;2803;47.916;8.074;2023-06-10T05:36:24;18.10;99.90
5560;DHT22;2803;47.916;8.074;2023-06-10T05:38:53;18.20;99.90
5560;DHT22;2803;47.916;8.074;2023-06-10T05:41:20;18.20;99.90
5560;DHT22;2803;47.916;8.074;2023-06-10T05:43:47;18.30;99.90
5560;DHT22;2803;47.916;8.074;2023-06-10T05:46:14;18.50;99.90
5560;DHT22;2803;47.916;8.074;2023-06-10T05:48:40;18.70;99.90
5560;DHT22;2803;47.916;8.074;2023-06-10T05:51:07;18.80;99.90
5560;DHT22;2803;47.916;8.074;2023-06-10T05:53:33;18.90;99.90
5560;DHT22;2803;47.916;8.074;2023-06-10T05:56:01;19.00;99.90
5560;DHT22;2803;47.916;8.074;2023-06-10T05:58:28;19.00;99.90
5560;DHT22;2803;47.916;8.074;2023-06-10T06:00:54;19.30;99.90
5560;DHT22;2803;47.916;8.074;2023-06-10T06:03:21;19.30;99.90
5560;DHT22;2803;47.916;8.074;2023-06-10T06:05:47;19.40;99.90
5560;DHT22;2803;47.916;8.074;2023-06-10T06:08:14;19.60;99.90
5560;DHT22;2803;47.916;8.074;2023-06-10T06:10:44;19.70;99.90
5560;DHT22;2803;47.916;8.074;2023-06-10T06:13:12;19.90;99.90
5560;DHT22;2803;47.916;8.074;2023-06-10T06:15:38;20.00;99.90
5560;DHT22;2803;47.916;8.074;2023-06-10T06:18:05;20.20;99.90
5560;DHT22;2803;47.916;8.074;2023-06-10T06:20:32;20.30;99.90
5560;DHT22;2803;47.916;8.074;2023-06-10T06:22:58;20.40;99.90
5560;DHT22;2803;47.916;8.074;2023-06-10T06:25:25;20.60;99.90
5560;DHT22;2803;47.916;8.074;2023-06-10T06:27:52;20.70;99.90
5560;DHT22;2803;47.916;8.074;2023-06-10T06:30:20;20.80;99.90
5560;DHT22;2803;47.916;8.074;2023-06-10T06:32:47;21.00;99.90
5560;DHT22;2803;47.916;8.074;2023-06-10T06:35:14;21.10;99.90
5560;DHT22;2803;47.916;8.074;2023-06-10T06:37:41;21.20;99.90
5560;DHT22;2803;47.916;8.074;2023-06-10T06:40:08;21.30;99.90
5560;DHT22;2803;47.916;8.074;2023-06-10T06:42:35;21.50;99.90
5560;DHT22;2803;47.916;8.074;2023-06-10T06:45:02;21.60;99.90
5560;DHT22;2803;47.916;8.074;2023-06-10T06:47:31;21.70;99.90
5560;DHT22;2803;47.916;8.074;2023-06-10T06:49:58;21.80;99.90
5560;DHT22;2803;47.916;8.074;2023-06-10T06:52:25;21.90;99.90
5560;DHT22;2803;47.916;8.074;2023-06-10T06:54:52;22.00;99.90
5560;DHT22;2803;47.916;8.074;2023-06-10T06:57:18;21.90;99.90
5560;DHT22;2803;47.916;8.074;2023-06-10T06:59:45;22.10;99.90
5560;DHT22;2803;47.916;8.074;2023-06-10T07:02:12;22.40;99.90
5560;DHT22;2803;47.916;8.074;2023-06-10T07:04:41;22.50;99.90
5560;DHT22;2803;47.916;8.074;2023-06-10T07:07:08;22.70;99.90
5560;DHT22;2803;47.916;8.074;2023-06-10T07:09:35;22.40;99.90
5560;DHT22;2803;47.916;8.074;2023-06-10T07:12:01;22.60;99.90
5560;DHT22;2803;47.916;8.074;2023-06-10T07:14:28;22.40;99.90
5560;DHT22;2803;47.916;8.074;2023-06-10T07:16:55;22.40;99.90
5560;DHT22;2803;47.916;8.074;2023-06-10T07:19:21;22.40;99.90
5560;DHT22;2803;47.916;8.074;2023-06-10T07:21:49;22.30;99.90
5560;DHT22;2803;47.916;8.074;2023-06-10T07:24:16;22.00;99.90
5560;DHT22;2803;47.916;8.074;2023-06-10T07:26:45;22.30;99.90
5560;DHT22;2803;47.916;8.074;2023-06-10T07:29:12;22.10;99.90
5560;DHT22;2803;47.916;8.074;2023-06-10T07:31:40;22.60;99.90
5560;DHT22;2803;47.916;8.074;2023-06-10T07:34:07;22.90;99.90
5560;DHT22;2803;47.916;8.074;2023-06-10T07:36:34;22.90;99.90
5560;DHT22;2803;47.916;8.074;2023-06-10T07:39:04;23.00;99.90
5560;DHT22;2803;47.916;8.074;2023-06-10T07:41:31;23.40;99.90
5560;DHT22;2803;47.916;8.074;2023-06-10T07:43:58;23.50;99.90
5560;DHT22;2803;47.916;8.074;2023-06-10T07:46:24;23.80;99.90
5560;DHT22;2803;47.916;8.074;2023-06-10T07:48:53;23.80;99.90
5560;DHT22;2803;47.916;8.074;2023-06-10T07:51:20;23.90;99.90
5560;DHT22;2803;47.916;8.074;2023-06-10T07:53:47;23.30;99.90
5560;DHT22;2803;47.916;8.074;2023-06-10T07:56:15;23.20;99.90
5560;DHT22;2803;47.916;8.074;2023-06-10T07:58:42;23.40;99.90
5560;DHT22;2803;47.916;8.074;2023-06-10T08:01:09;23.30;99.90
5560;DHT22;2803;47.916;8.074;2023-06-10T08:03:35;23.90;99.90
5560;DHT22;2803;47.916;8.074;2023-06-10T08:06:02;23.80;99.90
5560;DHT22;2803;47.916;8.074;2023-06-10T08:08:29;24.00;99.90
5560;DHT22;2803;47.916;8.074;2023-06-10T08:10:55;24.30;99.90
5560;DHT22;2803;47.916;8.074;2023-06-10T08:13:23;24.40;99.70
5560;DHT22;2803;47.916;8.074;2023-06-10T08:15:50;24.50;99.60
5560;DHT22;2803;47.916;8.074;2023-06-10T08:18:19;24.80;98.40
5560;DHT22;2803;47.916;8.074;2023-06-10T08:20:45;24.70;98.60
5560;DHT22;2803;47.916;8.074;2023-06-10T08:23:12;24.50;98.80
5560;DHT22;2803;47.916;8.074;2023-06-10T08:25:38;24.20;98.80
5560;DHT22;2803;47.916;8.074;2023-06-10T08:28:05;24.50;99.10
5560;DHT22;2803;47.916;8.074;2023-06-10T08:30:33;24.40;99.60
5560;DHT22;2803;47.916;8.074;2023-06-10T08:33:00;25.10;98.90
5560;DHT22;2803;47.916;8.074;2023-06-10T08:35:26;25.30;98.00
5560;DHT22;2803;47.916;8.074;2023-06-10T08:37:53;25.60;98.20
5560;DHT22;2803;47.916;8.074;2023-06-10T08:40:20;25.30;97.80
5560;DHT22;2803;47.916;8.074;2023-06-10T08:42:52;25.20;97.60
5560;DHT22;2803;47.916;8.074;2023-06-10T08:45:21;25.80;98.10
5560;DHT22;2803;47.916;8.074;2023-06-10T08:47:50;26.20;96.20
5560;DHT22;2803;47.916;8.074;2023-06-10T08:50:19;26.50;96.30
5560;DHT22;2803;47.916;8.074;2023-06-10T08:52:48;26.40;95.60
5560;DHT22;2803;47.916;8.074;2023-06-10T08:55:18;26.10;94.50
5560;DHT22;2803;47.916;8.074;2023-06-10T08:57:52;26.10;94.40
5560;DHT22;2803;47.916;8.074;2023-06-10T09:00:19;26.40;95.60
5560;DHT22;2803;47.916;8.074;2023-06-10T09:02:46;26.60;97.20
5560;DHT22;2803;47.916;8.074;2023-06-10T09:05:15;26.70;98.30
5560;DHT22;2803;47.916;8.074;2023-06-10T09:07:42;25.70;99.40
5560;DHT22;2803;47.916;8.074;2023-06-10T09:10:10;25.20;99.90
5560;DHT22;2803;47.916;8.074;2023-06-10T09:12:37;24.60;99.90
5560;DHT22;2803;47.916;8.074;2023-06-10T09:15:04;24.50;99.90
5560;DHT22;2803;47.916;8.074;2023-06-10T09:17:31;24.60;99.90
5560;DHT22;2803;47.916;8.074;2023-06-10T09:19:59;24.70;99.90
5560;DHT22;2803;47.916;8.074;2023-06-10T09:22:29;25.00;99.90
5560;DHT22;2803;47.916;8.074;2023-06-10T09:25:03;24.60;99.90
5560;DHT22;2803;47.916;8.074;2023-06-10T09:27:30;24.50;99.90
5560;DHT22;2803;47.916;8.074;2023-06-10T09:29:58;24.80;99.90
5560;DHT22;2803;47.916;8.074;2023-06-10T09:32:25;25.10;99.90
5560;DHT22;2803;47.916;8.074;2023-06-10T09:34:52;25.20;99.90
5560;DHT22;2803;47.916;8.074;2023-06-10T09:37:21;24.80;99.90
5560;DHT22;2803;47.916;8.074;2023-06-10T09:40:03;25.00;99.90
5560;DHT22;2803;47.916;8.074;2023-06-10T09:42:33;25.00;99.90
5560;DHT22;2803;47.916;8.074;2023-06-10T09:45:00;24.90;99.90
5560;DHT22;2803;47.916;8.074;2023-06-10T09:47:27;25.20;99.90
5560;DHT22;2803;47.916;8.074;2023-06-10T09:49:54;25.10;99.90
5560;DHT22;2803;47.916;8.074;2023-06-10T09:52:22;25.40;99.90
5560;DHT22;2803;47.916;8.074;2023-06-10T09:54:50;25.40;99.90
5560;DHT22;2803;47.916;8.074;2023-06-10T09:57:19;25.70;99.90
5560;DHT22;2803;47.916;8.074;2023-06-10T09:59:46;25.00;99.90
5560;DHT22;2803;47.916;8.074;2023-06-10T10:02:14;25.00;99.90
5560;DHT22;2803;47.916;8.074;2023-06-10T10:04:41;24.80;99.90
5560;DHT22;2803;47.916;8.074;2023-06-10T10:07:08;25.00;99.90
5560;DHT22;2803;47.916;8.074;2023-06-10T10:09:36;25.30;99.90
5560;DHT22;2803;47.916;8.074;2023-06-10T10:12:03;25.80;99.90
5560;DHT22;2803;47.916;8.074;2023-06-10T10:14:36;25.60;99.90
5560;DHT22;2803;47.916;8.074;2023-06-10T10:17:06;25.50;99.90
5560;DHT22;2803;47.916;8.074;2023-06-10T10:19:36;25.40;99.90
5560;DHT22;2803;47.916;8.074;2023-06-10T10:22:08;25.70;99.90
5560;DHT22;2803;47.916;8.074;2023-06-10T10:24:38;26.00;99.90
5560;DHT22;2803;47.916;8.074;2023-06-10T10:27:17;26.20;99.90
5560;DHT22;2803;47.916;8.074;2023-06-10T10:29:47;26.20;99.90
5560;DHT22;2803;47.916;8.074;2023-06-10T10:32:16;26.10;99.90
5560;DHT22;2803;47.916;8.074;2023-06-10T10:34:48;25.90;99.90
5560;DHT22;2803;47.916;8.074;2023-06-10T10:37:17;26.10;99.90
5560;DHT22;2803;47.916;8.074;2023-06-10T10:39:45;26.20;99.90
5560;DHT22;2803;47.916;8.074;2023-06-10T10:42:12;26.90;99.90
5560;DHT22;2803;47.916;8.074;2023-06-10T10:44:40;26.90;99.90
5560;DHT22;2803;47.916;8.074;2023-06-10T10:47:09;27.20;99.90
5560;DHT22;2803;47.916;8.074;2023-06-10T10:49:37;27.40;99.60
5560;DHT22;2803;47.916;8.074;2023-06-10T10:52:04;27.60;99.40
5560;DHT22;2803;47.916;8.074;2023-06-10T10:54:34;27.80;99.80
5560;DHT22;2803;47.916;8.074;2023-06-10T10:57:16;28.10;98.40
5560;DHT22;2803;47.916;8.074;2023-06-10T10:59:44;28.30;98.00
5560;DHT22;2803;47.916;8.074;2023-06-10T11:02:16;27.40;98.60
5560;DHT22;2803;47.916;8.074;2023-06-10T11:04:46;27.60;98.40
5560;DHT22;2803;47.916;8.074;2023-06-10T11:07:38;27.70;98.20
5560;DHT22;2803;47.916;8.074;2023-06-10T11:10:28;27.50;98.30
5560;DHT22;2803;47.916;8.074;2023-06-10T11:13:13;27.20;99.30
5560;DHT22;2803;47.916;8.074;2023-06-10T11:15:57;27.10;99.50
5560;DHT22;2803;47.916;8.074;2023-06-10T11:18:39;26.40;99.90
5560;DHT22;2803;47.916;8.074;2023-06-10T11:21:24;26.20;99.90
5560;DHT22;2803;47.916;8.074;2023-06-10T11:24:12;26.70;99.90
5560;DHT22;2803;47.916;8.074;2023-06-10T11:26:50;27.60;99.10
5560;DHT22;2803;47.916;8.074;2023-06-10T11:29:36;28.40;99.00
5560;DHT22;2803;47.916;8.074;2023-06-10T11:32:21;29.10;97.20
5560;DHT22;2803;47.916;8.074;2023-06-10T11:35:05;29.70;95.90
5560;DHT22;2803;47.916;8.074;2023-06-10T11:37:49;29.50;95.70
5560;DHT22;2803;47.916;8.074;2023-06-10T11:40:34;29.20;95.50
5560;DHT22;2803;47.916;8.074;2023-06-10T11:43:28;28.70;96.10
5560;DHT22;2803;47.916;8.074;2023-06-10T11:46:01;28.20;96.80
5560;DHT22;2803;47.916;8.074;2023-06-10T11:48:49;27.70;98.00
5560;DHT22;2803;47.916;8.074;2023-06-10T11:51:34;27.70;98.80
5560;DHT22;2803;47.916;8.074;2023-06-10T11:54:14;28.10;98.50
5560;DHT22;2803;47.916;8.074;2023-06-10T11:56:59;27.90;98.20
5560;DHT22;2803;47.916;8.074;2023-06-10T11:59:42;27.70;98.60
5560;DHT22;2803;47.916;8.074;2023-06-10T12:02:28;26.90;99.10
5560;DHT22;2803;47.916;8.074;2023-06-10T12:05:14;26.70;99.90
5560;DHT22;2803;47.916;8.074;2023-06-10T12:08:12;26.60;99.50
5560;DHT22;2803;47.916;8.074;2023-06-10T12:10:42;26.60;99.90
5560;DHT22;2803;47.916;8.074;2023-06-10T12:13:27;27.10;99.90
5560;DHT22;2803;47.916;8.074;2023-06-10T12:16:12;27.90;98.60
5560;DHT22;2803;47.916;8.074;2023-06-10T12:19:02;28.30;97.80
5560;DHT22;2803;47.916;8.074;2023-06-10T12:21:38;28.50;97.50
5560;DHT22;2803;47.916;8.074;2023-06-10T12:24:24;29.30;96.10
5560;DHT22;2803;47.916;8.074;2023-06-10T12:27:11;29.20;95.30
5560;DHT22;2803;47.916;8.074;2023-06-10T12:29:53;29.30;95.90
5560;DHT22;2803;47.916;8.074;2023-06-10T12:32:36;29.10;95.80
5560;DHT22;2803;47.916;8.074;2023-06-10T12:35:23;29.40;95.60
5560;DHT22;2803;47.916;8.074;2023-06-10T12:38:05;29.10;95.20
5560;DHT22;2803;47.916;8.074;2023-06-10T12:40:52;29.10;95.60
5560;DHT22;2803;47.916;8.074;2023-06-10T12:43:33;29.10;95.20
5560;DHT22;2803;47.916;8.074;2023-06-10T12:46:19;29.10;95.40
5560;DHT22;2803;47.916;8.074;2023-06-10T12:49:03;28.80;95.80
5560;DHT22;2803;47.916;8.074;2023-06-10T12:51:48;28.60;96.20
5560;DHT22;2803;47.916;8.074;2023-06-10T12:54:30;28.70;95.40
5560;DHT22;2803;47.916;8.074;2023-06-10T12:57:17;28.70;95.80
5560;DHT22;2803;47.916;8.074;2023-06-10T13:00:02;28.60;96.80
5560;DHT22;2803;47.916;8.074;2023-06-10T13:02:43;28.40;96.20
5560;DHT22;2803;47.916;8.074;2023-06-10T13:05:28;29.20;95.60
5560;DHT22;2803;47.916;8.074;2023-06-10T13:08:14;29.20;95.30
5560;DHT22;2803;47.916;8.074;2023-06-10T13:10:59;30.10;93.90
5560;DHT22;2803;47.916;8.074;2023-06-10T13:13:45;30.00;93.60
5560;DHT22;2803;47.916;8.074;2023-06-10T13:16:28;29.30;93.60
5560;DHT22;2803;47.916;8.074;2023-06-10T13:19:13;29.20;94.60
5560;DHT22;2803;47.916;8.074;2023-06-10T13:21:55;28.80;94.80
5560;DHT22;2803;47.916;8.074;2023-06-10T13:24:39;28.00;95.10
5560;DHT22;2803;47.916;8.074;2023-06-10T13:27:24;27.30;96.20
5560;DHT22;2803;47.916;8.074;2023-06-10T13:30:11;26.70;97.50
5560;DHT22;2803;47.916;8.074;2023-06-10T13:32:56;26.50;97.00
5560;DHT22;2803;47.916;8.074;2023-06-10T13:35:38;26.80;95.80
5560;DHT22;2803;47.916;8.074;2023-06-10T13:38:22;27.20;95.60
5560;DHT22;2803;47.916;8.074;2023-06-10T13:41:07;27.50;94.40
5560;DHT22;2803;47.916;8.074;2023-06-10T13:43:50;28.30;94.70
5560;DHT22;2803;47.916;8.074;2023-06-10T13:46:36;29.30;94.20
5560;DHT22;2803;47.916;8.074;2023-06-10T13:49:18;29.00;94.30
5560;DHT22;2803;47.916;8.074;2023-06-10T13:52:07;29.10;94.70
5560;DHT22;2803;47.916;8.074;2023-06-10T13:54:54;29.20;95.60
5560;DHT22;2803;47.916;8.074;2023-06-10T13:57:33;29.60;94.20
5560;DHT22;2803;47.916;8.074;2023-06-10T14:00:18;30.30;93.20
5560;DHT22;2803;47.916;8.074;2023-06-10T14:03:01;30.20;93.20
5560;DHT22;2803;47.916;8.074;2023-06-10T14:05:48;31.10;92.70
5560;DHT22;2803;47.916;8.074;2023-06-10T14:08:30;31.10;91.30
5560;DHT22;2803;47.916;8.074;2023-06-10T14:11:14;30.50;91.30
5560;DHT22;2803;47.916;8.074;2023-06-10T14:13:59;30.10;92.60
5560;DHT22;2803;47.916;8.074;2023-06-10T14:16:42;29.90;92.70
5560;DHT22;2803;47.916;8.074;2023-06-10T14:19:28;29.70;92.40
5560;DHT22;2803;47.916;8.074;2023-06-10T14:22:14;29.50;93.80
5560;DHT22;2803;47.916;8.074;2023-06-10T14:24:59;29.50;94.40
5560;DHT22;2803;47.916;8.074;2023-06-10T14:27:40;29.50;93.20
5560;DHT22;2803;47.916;8.074;2023-06-10T14:30:26;29.30;93.70
5560;DHT22;2803;47.916;8.074;2023-06-10T14:33:11;29.00;91.80
5560;DHT22;2803;47.916;8.074;2023-06-10T14:35:57;28.60;93.90
5560;DHT22;2803;47.916;8.074;2023-06-10T14:38:42;28.50;94.60
5560;DHT22;2803;47.916;8.074;2023-06-10T14:41:24;28.40;93.60
5560;DHT22;2803;47.916;8.074;2023-06-10T14:44:09;28.70;92.70
5560;DHT22;2803;47.916;8.074;2023-06-10T14:46:54;28.80;92.40
5560;DHT22;2803;47.916;8.074;2023-06-10T14:49:36;29.00;91.60
5560;DHT22;2803;47.916;8.074;2023-06-10T14:52:23;29.00;90.60
5560;DHT22;2803;47.916;8.074;2023-06-10T14:55:05;29.10;90.10
5560;DHT22;2803;47.916;8.074;2023-06-10T14:57:47;29.20;91.80
5560;DHT22;2803;47.916;8.074;2023-06-10T15:00:36;29.20;93.00
5560;DHT22;2803;47.916;8.074;2023-06-10T15:03:20;29.20;91.20
5560;DHT22;2803;47.916;8.074;2023-06-10T15:06:03;29.10;91.20
5560;DHT22;2803;47.916;8.074;2023-06-10T15:08:50;29.10;94.30
5560;DHT22;2803;47.916;8.074;2023-06-10T15:11:33;28.50;97.40
5560;DHT22;2803;47.916;8.074;2023-06-10T15:14:15;28.30;99.30
5560;DHT22;2803;47.916;8.074;2023-06-10T15:17:00;27.60;99.40
5560;DHT22;2803;47.916;8.074;2023-06-10T15:19:45;26.90;99.90
5560;DHT22;2803;47.916;8.074;2023-06-10T15:22:30;26.70;99.90
5560;DHT22;2803;47.916;8.074;2023-06-10T15:25:16;26.60;99.90
5560;DHT22;2803;47.916;8.074;2023-06-10T15:28:01;26.20;99.90
5560;DHT22;2803;47.916;8.074;2023-06-10T15:30:40;26.10;99.90
5560;DHT22;2803;47.916;8.074;2023-06-10T15:33:28;25.80;99.90
5560;DHT22;2803;47.916;8.074;2023-06-10T15:36:13;25.80;99.90
5560;DHT22;2803;47.916;8.074;2023-06-10T15:39:00;25.60;99.90
5560;DHT22;2803;47.916;8.074;2023-06-10T15:41:40;25.60;99.90
5560;DHT22;2803;47.916;8.074;2023-06-10T15:44:25;25.60;99.90
5560;DHT22;2803;47.916;8.074;2023-06-10T15:47:11;25.60;99.90
5560;DHT22;2803;47.916;8.074;2023-06-10T15:49:55;25.60;99.90
5560;DHT22;2803;47.916;8.074;2023-06-10T15:52:37;25.70;99.90
5560;DHT22;2803;47.916;8.074;2023-06-10T15:55:22;26.10;99.90
5560;DHT22;2803;47.916;8.074;2023-06-10T15:58:08;26.40;99.90
5560;DHT22;2803;47.916;8.074;2023-06-10T16:00:54;26.60;99.90
5560;DHT22;2803;47.916;8.074;2023-06-10T16:03:36;26.60;99.90
5560;DHT22;2803;47.916;8.074;2023-06-10T16:06:18;26.60;99.90
5560;DHT22;2803;47.916;8.074;2023-06-10T16:09:03;26.90;99.90
5560;DHT22;2803;47.916;8.074;2023-06-10T16:11:48;27.00;99.90
5560;DHT22;2803;47.916;8.074;2023-06-10T16:14:34;26.80;99.90
5560;DHT22;2803;47.916;8.074;2023-06-10T16:17:17;26.80;99.90
5560;DHT22;2803;47.916;8.074;2023-06-10T16:20:02;26.90;99.90
5560;DHT22;2803;47.916;8.074;2023-06-10T16:22:31;26.90;99.90
5560;DHT22;2803;47.916;8.074;2023-06-10T16:24:57;27.00;99.90
5560;DHT22;2803;47.916;8.074;2023-06-10T16:27:24;27.00;99.90
5560;DHT22;2803;47.916;8.074;2023-06-10T16:29:52;27.00;99.90
5560;DHT22;2803;47.916;8.074;2023-06-10T16:32:19;27.10;99.90
5560;DHT22;2803;47.916;8.074;2023-06-10T16:34:45;27.10;99.90
5560;DHT22;2803;47.916;8.074;2023-06-10T16:37:12;27.00;99.90